Time;durP1;ratioP1;P1;durP2;ratioP2;P2;SDS_P1;SDS_P2;PMS_P1;PMS_P2;Temp;Humidity;BMP_temperature;BMP_pressure;BME280_temperature;BME280_humidity;BME280_pressure;Samples;Min_cycle;Max_cycle;Signal;HPM_P1;HPM_P2
2023/01/27 00:00:19;;;;;;;20.75;12.23;;;5.40;99.90;;;;;;5121666;28;20268;-76
2023/01/27 00:02:45;;;;;;;26.13;12.63;;;5.50;99.90;;;;;;5117675;28;20175;-77
2023/01/27 00:05:13;;;;;;;26.55;12.40;;;5.50;99.90;;;;;;5126324;27;20672;-77
2023/01/27 00:07:44;;;;;;;24.55;12.75;;;5.40;99.90;;;;;;5112175;28;20225;-77
2023/01/27 00:10:12;;;;;;;24.55;12.27;;;5.40;99.90;;;;;;5112842;28;20181;-77
2023/01/27 00:15:22;;;;;;;24.90;12.15;;;5.40;99.90;;;;;;5132753;28;20623;-77
2023/01/27 00:17:48;;;;;;;19.75;12.15;;;5.40;99.90;;;;;;5132957;27;20204;-77
2023/01/27 00:24:34;;;;;;;18.98;11.38;;;5.40;99.90;;;;;;5112773;28;20651;-77
2023/01/27 00:25:49;;;;;;;21.25;10.55;;;5.40;99.90;;;;;;5126274;27;20589;-77
2023/01/27 00:28:21;;;;;;;19.17;10.45;;;5.40;99.90;;;;;;5137255;27;20165;-77
2023/01/27 00:30:51;;;;;;;16.33;9.82;;;5.40;99.90;;;;;;5149031;27;20632;-77
2023/01/27 00:33:24;;;;;;;22.48;10.25;;;5.40;99.90;;;;;;5098079;28;20188;-77
2023/01/27 00:36:05;;;;;;;17.30;9.68;;;5.40;99.90;;;;;;5116203;28;20162;-77
2023/01/27 00:38:34;;;;;;;14.23;9.00;;;5.40;99.90;;;;;;5114989;27;20598;-77
2023/01/27 00:41:18;;;;;;;20.48;9.55;;;5.40;99.90;;;;;;5120771;27;20212;-77
2023/01/27 00:43:54;;;;;;;18.52;9.27;;;5.30;99.90;;;;;;5114724;28;20169;-81
2023/01/27 00:46:24;;;;;;;19.45;9.15;;;5.40;99.90;;;;;;5114638;28;20576;-77
2023/01/27 00:48:51;;;;;;;15.93;8.45;;;5.30;99.90;;;;;;5114223;28;20584;-77
2023/01/27 00:51:17;;;;;;;13.20;7.53;;;5.40;99.90;;;;;;5129066;27;20204;-76
2023/01/27 00:53:44;;;;;;;14.85;7.10;;;5.30;99.90;;;;;;5133703;27;20177;-77
2023/01/27 00:56:10;;;;;;;9.40;6.85;;;5.30;99.90;;;;;;5135038;27;20176;-77
2023/01/27 00:58:36;;;;;;;10.90;6.28;;;5.30;99.90;;;;;;5135930;27;20398;-76
2023/01/27 01:01:04;;;;;;;14.00;6.90;;;5.30;99.90;;;;;;5126475;27;20326;-77
2023/01/27 01:03:32;;;;;;;10.02;7.40;;;5.30;99.90;;;;;;5114302;28;20184;-77
2023/01/27 01:05:59;;;;;;;13.02;6.93;;;5.30;99.90;;;;;;5127477;27;20241;-77
2023/01/27 01:08:25;;;;;;;10.48;6.78;;;5.30;99.90;;;;;;5133643;27;20285;-77
2023/01/27 01:10:51;;;;;;;11.48;6.80;;;5.30;99.90;;;;;;5115821;27;20176;-77
2023/01/27 01:13:18;;;;;;;14.63;7.55;;;5.30;99.90;;;;;;5135126;27;20575;-77
2023/01/27 01:15:44;;;;;;;13.05;7.35;;;5.30;99.90;;;;;;5134307;27;20263;-77
2023/01/27 01:18:10;;;;;;;15.73;6.68;;;5.30;99.90;;;;;;5135424;27;20246;-77
2023/01/27 01:20:38;;;;;;;10.68;6.88;;;5.30;99.90;;;;;;5132127;27;20256;-77
2023/01/27 01:23:05;;;;;;;14.27;7.00;;;5.30;99.90;;;;;;5124030;27;20177;-77
2023/01/27 01:25:32;;;;;;;10.70;6.85;;;5.30;99.90;;;;;;5113565;27;20540;-77
2023/01/27 01:27:58;;;;;;;10.73;6.47;;;5.30;99.90;;;;;;5114438;27;20188;-77
2023/01/27 01:30:25;;;;;;;11.55;6.50;;;5.30;99.90;;;;;;5113748;28;20567;-77
2023/01/27 01:32:52;;;;;;;10.25;6.13;;;5.40;99.90;;;;;;5116846;27;20681;-77
2023/01/27 01:35:19;;;;;;;8.55;5.45;;;5.30;99.90;;;;;;5113665;28;20540;-77
2023/01/27 01:37:44;;;;;;;10.55;5.88;;;5.30;99.90;;;;;;5114675;28;20209;-77
2023/01/27 01:40:11;;;;;;;6.55;4.22;;;5.30;99.90;;;;;;5128272;27;20176;-77
2023/01/27 01:42:52;;;;;;;7.85;4.30;;;5.30;99.90;;;;;;5133493;27;20180;-77
2023/01/27 01:45:32;;;;;;;7.13;3.92;;;5.30;99.90;;;;;;5124363;27;20260;-77
2023/01/27 01:48:23;;;;;;;8.00;3.47;;;5.30;99.90;;;;;;5096170;28;20181;-77
2023/01/27 01:50:59;;;;;;;8.73;3.45;;;5.30;99.90;;;;;;5114965;27;20208;-77
2023/01/27 01:53:32;;;;;;;7.43;3.78;;;5.30;99.90;;;;;;5125892;27;20226;-76
2023/01/27 01:56:04;;;;;;;13.63;4.05;;;5.30;99.90;;;;;;5125985;27;20176;-77
2023/01/27 01:58:30;;;;;;;8.90;4.40;;;5.40;99.90;;;;;;5133097;27;20227;-77
2023/01/27 02:00:56;;;;;;;7.43;4.45;;;5.30;99.90;;;;;;5128838;27;20257;-77
2023/01/27 02:03:24;;;;;;;7.55;4.47;;;5.40;99.90;;;;;;5122651;27;20273;-77
2023/01/27 02:05:52;;;;;;;10.63;4.43;;;5.40;99.90;;;;;;5127551;27;20312;-77
2023/01/27 02:08:28;;;;;;;11.52;4.40;;;5.40;99.90;;;;;;5132793;27;20731;-77
2023/01/27 02:10:54;;;;;;;10.30;3.83;;;5.40;99.90;;;;;;5132499;27;20172;-77
2023/01/27 02:13:20;;;;;;;8.75;3.30;;;5.40;99.90;;;;;;5128467;27;20541;-77
2023/01/27 02:15:47;;;;;;;6.88;3.25;;;5.40;99.90;;;;;;5132578;27;20572;-77
2023/01/27 02:18:13;;;;;;;6.93;2.85;;;5.40;99.90;;;;;;5115174;27;20212;-77
2023/01/27 02:20:50;;;;;;;6.75;2.92;;;5.40;99.90;;;;;;5113492;28;20554;-77
2023/01/27 02:23:43;;;;;;;5.97;2.30;;;5.30;99.90;;;;;;5095480;28;20181;-78
2023/01/27 02:26:18;;;;;;;6.13;2.47;;;5.30;99.90;;;;;;5119327;27;20178;-77
2023/01/27 02:28:44;;;;;;;5.35;2.40;;;5.40;99.90;;;;;;5112344;28;20185;-76
2023/01/27 02:31:10;;;;;;;5.43;2.15;;;5.40;99.90;;;;;;5111954;28;20544;-77
2023/01/27 02:33:36;;;;;;;6.57;2.50;;;5.30;99.90;;;;;;5111991;28;20197;-77
2023/01/27 02:36:11;;;;;;;4.35;2.05;;;5.40;99.90;;;;;;5101443;28;20182;-77
2023/01/27 02:38:49;;;;;;;6.15;2.25;;;5.40;99.90;;;;;;5126587;27;20227;-77
2023/01/27 02:41:27;;;;;;;4.85;1.80;;;5.40;99.90;;;;;;5113094;28;20173;-77
2023/01/27 02:43:54;;;;;;;5.65;2.03;;;5.40;99.90;;;;;;5111992;28;20233;-77
2023/01/27 02:46:20;;;;;;;5.00;2.30;;;5.40;99.90;;;;;;5106458;27;20180;-77
2023/01/27 02:48:46;;;;;;;5.28;1.92;;;5.40;99.90;;;;;;5132001;27;20655;-77
2023/01/27 02:51:13;;;;;;;4.22;1.80;;;5.30;99.90;;;;;;5131011;27;20248;-76
2023/01/27 02:53:42;;;;;;;4.22;1.60;;;5.30;99.90;;;;;;5118580;27;20527;-79
2023/01/27 02:56:08;;;;;;;7.15;1.80;;;5.30;99.90;;;;;;5094990;28;20189;-77
2023/01/27 02:58:34;;;;;;;4.05;1.63;;;5.30;99.90;;;;;;5095010;28;20228;-76
2023/01/27 03:01:14;;;;;;;2.80;1.70;;;5.30;99.90;;;;;;5111778;28;20563;-76
2023/01/27 03:03:45;;;;;;;5.07;1.60;;;5.20;99.90;;;;;;5113274;27;20177;-77
2023/01/27 03:06:13;;;;;;;5.30;1.90;;;5.30;99.90;;;;;;5115139;27;20177;-76
2023/01/27 03:08:39;;;;;;;4.65;2.00;;;5.30;99.90;;;;;;5111218;28;20232;-76
2023/01/27 03:11:06;;;;;;;7.50;1.70;;;5.30;99.90;;;;;;5129153;27;20177;-77
2023/01/27 03:13:32;;;;;;;4.63;1.95;;;5.30;99.90;;;;;;5132151;27;20233;-76
2023/01/27 03:18:48;;;;;;;3.22;1.58;;;5.20;99.90;;;;;;5125829;27;20200;-76
2023/01/27 03:21:16;;;;;;;4.93;1.80;;;5.20;99.90;;;;;;5131862;27;20241;-76
2023/01/27 03:23:44;;;;;;;7.28;1.65;;;5.30;99.90;;;;;;5131922;27;20172;-76
2023/01/27 03:26:11;;;;;;;4.13;1.67;;;5.20;99.90;;;;;;5113395;27;20200;-77
2023/01/27 03:28:41;;;;;;;3.60;1.60;;;5.30;99.90;;;;;;5119120;27;20184;-76
2023/01/27 03:31:20;;;;;;;3.22;1.58;;;5.20;99.90;;;;;;5111394;28;20242;-76
2023/01/27 03:33:58;;;;;;;5.53;1.52;;;5.20;99.90;;;;;;5111266;28;20185;-76
2023/01/27 03:47:30;;;;;;;4.57;1.60;;;5.10;99.90;;;;;;5132090;28;20191;-76
2023/01/27 03:49:56;;;;;;;6.40;1.58;;;5.20;99.90;;;;;;5132925;27;20180;-76
2023/01/27 03:52:22;;;;;;;6.50;1.60;;;5.20;99.90;;;;;;5111996;28;20177;-76
2023/01/27 03:54:47;;;;;;;7.65;1.90;;;5.10;99.90;;;;;;5118832;28;20667;-76
2023/01/27 03:57:13;;;;;;;6.85;1.60;;;5.10;99.90;;;;;;5116500;28;20605;-77
2023/01/27 03:59:39;;;;;;;5.32;1.77;;;5.10;99.90;;;;;;5112231;28;20187;-77
2023/01/27 04:07:35;;;;;;;3.42;1.40;;;5.10;99.90;;;;;;5135790;27;20212;-77
2023/01/27 04:10:01;;;;;;;3.78;1.30;;;5.00;99.90;;;;;;5136912;27;20232;-77
2023/01/27 04:12:27;;;;;;;10.55;1.60;;;5.00;99.90;;;;;;5118270;27;20200;-77
2023/01/27 04:14:53;;;;;;;4.53;1.30;;;5.00;99.90;;;;;;5097821;28;20189;-77
2023/01/27 04:17:19;;;;;;;4.05;1.42;;;5.00;99.90;;;;;;5122751;27;20675;-77
2023/01/27 04:19:46;;;;;;;5.95;1.60;;;5.00;99.90;;;;;;5135576;27;20180;-77
2023/01/27 04:22:14;;;;;;;7.03;1.70;;;4.90;99.90;;;;;;5136353;27;20179;-77
2023/01/27 04:24:40;;;;;;;5.05;1.60;;;5.00;99.90;;;;;;5136258;27;20196;-77
2023/01/27 04:27:09;;;;;;;2.67;1.40;;;4.90;99.90;;;;;;5135378;27;20180;-77
2023/01/27 04:29:38;;;;;;;5.18;1.58;;;4.90;99.90;;;;;;5136260;27;20546;-77
2023/01/27 04:32:05;;;;;;;5.38;1.60;;;4.90;99.90;;;;;;5129248;27;20185;-76
2023/01/27 04:34:31;;;;;;;3.20;1.77;;;4.90;99.90;;;;;;5100427;27;20184;-76
2023/01/27 04:36:57;;;;;;;8.27;1.75;;;4.90;99.90;;;;;;5135129;27;20177;-81
2023/01/27 04:39:24;;;;;;;4.25;1.88;;;5.00;99.90;;;;;;5135941;27;20168;-77
2023/01/27 04:41:50;;;;;;;5.30;2.20;;;4.90;99.90;;;;;;5136026;27;20172;-77
2023/01/27 04:44:19;;;;;;;5.57;1.88;;;5.00;99.90;;;;;;5134360;27;20199;-76
2023/01/27 04:46:45;;;;;;;4.30;2.22;;;5.00;99.90;;;;;;5126589;27;20176;-77
2023/01/27 04:49:11;;;;;;;6.25;2.17;;;5.00;99.90;;;;;;5133868;27;20230;-77
2023/01/27 04:51:37;;;;;;;5.00;2.20;;;4.90;99.90;;;;;;5134685;27;20624;-77
2023/01/27 04:54:04;;;;;;;4.50;1.95;;;4.90;99.90;;;;;;5118262;27;20177;-78
2023/01/27 04:56:33;;;;;;;6.45;2.30;;;4.90;99.90;;;;;;5115284;28;20181;-78
2023/01/27 04:59:01;;;;;;;4.18;1.98;;;5.00;99.90;;;;;;5124846;27;20622;-79
2023/01/27 05:01:27;;;;;;;6.43;2.47;;;5.00;99.90;;;;;;5136140;27;20172;-77
2023/01/27 05:03:53;;;;;;;3.47;2.22;;;5.00;99.90;;;;;;5134907;27;20233;-77
2023/01/27 05:06:20;;;;;;;5.90;2.60;;;5.00;99.90;;;;;;5119267;27;20210;-78
2023/01/27 05:08:47;;;;;;;7.25;2.42;;;5.00;99.90;;;;;;5130464;27;20208;-76
2023/01/27 05:11:13;;;;;;;4.93;2.40;;;4.90;99.90;;;;;;5135241;27;20532;-81
2023/01/27 05:13:42;;;;;;;6.38;2.63;;;4.90;99.90;;;;;;5133271;27;20523;-77
2023/01/27 05:16:10;;;;;;;7.15;2.63;;;4.90;99.90;;;;;;5134343;27;20197;-78
2023/01/27 05:18:36;;;;;;;5.63;2.55;;;4.90;99.90;;;;;;5123911;27;20278;-78
2023/01/27 05:21:04;;;;;;;7.60;2.58;;;4.90;99.90;;;;;;5114815;28;20169;-78
2023/01/27 05:23:35;;;;;;;7.78;2.50;;;4.90;99.90;;;;;;5117734;27;20624;-77
2023/01/27 05:26:23;;;;;;;6.18;2.50;;;4.90;99.90;;;;;;5135351;27;20183;-77
2023/01/27 05:28:49;;;;;;;4.68;2.50;;;4.80;99.90;;;;;;5132815;27;20271;-78
2023/01/27 05:31:21;;;;;;;3.53;2.25;;;4.80;99.90;;;;;;5132116;27;20176;-79
2023/01/27 05:33:50;;;;;;;4.20;2.30;;;4.80;99.90;;;;;;5134515;27;20264;-77
2023/01/27 05:36:17;;;;;;;5.50;2.20;;;4.90;99.90;;;;;;5116518;27;20230;-77
2023/01/27 05:38:43;;;;;;;8.65;1.95;;;4.80;99.90;;;;;;5133621;27;20204;-76
2023/01/27 05:41:10;;;;;;;7.82;2.25;;;4.80;99.90;;;;;;5113747;27;20644;-76
2023/01/27 05:43:38;;;;;;;4.75;2.25;;;4.80;99.90;;;;;;5118043;27;20688;-77
2023/01/27 05:46:16;;;;;;;6.57;2.60;;;4.70;99.90;;;;;;5133103;27;20173;-77
2023/01/27 05:48:44;;;;;;;3.88;1.80;;;4.70;99.90;;;;;;5133495;27;20207;-78
2023/01/27 05:51:11;;;;;;;2.05;1.63;;;4.70;99.90;;;;;;5119129;27;20230;-77
2023/01/27 05:53:37;;;;;;;2.58;1.70;;;4.80;99.90;;;;;;5119567;27;20221;-77
2023/01/27 05:56:04;;;;;;;3.90;1.88;;;4.80;99.90;;;;;;5127743;27;20177;-80
2023/01/27 05:58:30;;;;;;;5.15;1.70;;;4.80;99.90;;;;;;5111682;28;20205;-76
2023/01/27 06:01:04;;;;;;;3.35;1.80;;;4.80;99.90;;;;;;5112625;28;20205;-76
2023/01/27 06:03:30;;;;;;;6.22;1.80;;;4.80;99.90;;;;;;5117275;27;20175;-78
2023/01/27 06:05:57;;;;;;;5.20;1.50;;;4.80;99.90;;;;;;5131276;27;20191;-76
2023/01/27 06:08:24;;;;;;;6.72;1.80;;;4.80;99.90;;;;;;5119162;27;20228;-79
2023/01/27 06:10:50;;;;;;;5.72;1.65;;;4.80;99.90;;;;;;5133511;27;20272;-79
2023/01/27 06:13:18;;;;;;;5.03;1.83;;;4.80;99.90;;;;;;5132891;27;20209;-79
2023/01/27 06:15:45;;;;;;;3.25;1.90;;;4.80;99.90;;;;;;5132506;27;20181;-77
2023/01/27 06:18:12;;;;;;;5.97;1.95;;;4.80;99.90;;;;;;5130560;27;20205;-76
2023/01/27 06:20:38;;;;;;;5.55;1.98;;;4.80;99.90;;;;;;5122502;27;20235;-77
2023/01/27 06:23:05;;;;;;;3.47;1.70;;;4.80;99.90;;;;;;5113187;27;20178;-77
2023/01/27 06:25:34;;;;;;;2.83;1.73;;;4.70;99.90;;;;;;5118100;27;20172;-76
2023/01/27 06:27:59;;;;;;;3.78;1.55;;;4.80;99.90;;;;;;5133192;27;20267;-76
2023/01/27 06:30:25;;;;;;;2.17;1.35;;;4.70;99.90;;;;;;5121151;27;20272;-77
2023/01/27 06:32:51;;;;;;;8.85;1.75;;;4.70;99.90;;;;;;5115646;27;20516;-78
2023/01/27 06:35:17;;;;;;;2.08;1.40;;;4.80;99.90;;;;;;5112685;27;20185;-76
2023/01/27 06:37:42;;;;;;;7.53;1.80;;;4.80;99.90;;;;;;5113511;28;20318;-77
2023/01/27 06:40:09;;;;;;;5.10;1.50;;;4.70;99.90;;;;;;5113926;27;20263;-77
2023/01/27 06:42:35;;;;;;;4.25;1.35;;;4.70;99.90;;;;;;5111768;28;20208;-78
2023/01/27 06:45:01;;;;;;;2.42;1.50;;;4.70;99.90;;;;;;5122843;27;20632;-77
2023/01/27 06:47:27;;;;;;;5.45;1.42;;;4.70;99.90;;;;;;5114651;27;20279;-76
2023/01/27 06:49:52;;;;;;;6.45;1.55;;;4.70;99.90;;;;;;5129073;27;20188;-82
2023/01/27 06:52:18;;;;;;;7.78;1.48;;;4.70;99.90;;;;;;5080192;28;20196;-76
2023/01/27 06:54:44;;;;;;;4.82;1.40;;;4.70;99.90;;;;;;5127695;27;20636;-76
2023/01/27 06:57:10;;;;;;;4.47;1.60;;;4.70;99.90;;;;;;5130737;27;20222;-76
2023/01/27 06:59:35;;;;;;;4.75;1.40;;;4.70;99.90;;;;;;5126564;27;20295;-76
2023/01/27 07:02:01;;;;;;;3.55;1.48;;;4.70;99.90;;;;;;5120618;27;20185;-76
2023/01/27 07:04:28;;;;;;;4.10;1.50;;;4.70;99.90;;;;;;5119033;27;20628;-77
2023/01/27 07:06:54;;;;;;;5.00;2.00;;;4.70;99.90;;;;;;5128087;27;20169;-76
2023/01/27 07:09:20;;;;;;;4.55;1.90;;;4.70;99.90;;;;;;5132754;27;20237;-76
2023/01/27 07:11:45;;;;;;;4.80;1.70;;;4.60;99.90;;;;;;5123576;27;20320;-77
2023/01/27 07:14:11;;;;;;;4.65;1.88;;;4.70;99.90;;;;;;5132032;27;20191;-76
2023/01/27 07:16:37;;;;;;;4.60;1.60;;;4.70;99.90;;;;;;5131231;27;20173;-76
2023/01/27 07:19:02;;;;;;;4.85;1.70;;;4.70;99.90;;;;;;5111308;27;20201;-77
2023/01/27 07:21:28;;;;;;;2.15;1.58;;;4.70;99.90;;;;;;5111611;28;20233;-77
2023/01/27 07:23:54;;;;;;;7.95;1.75;;;4.70;99.90;;;;;;5106484;28;20230;-78
2023/01/27 07:26:20;;;;;;;5.57;1.88;;;4.70;99.90;;;;;;5111475;28;20188;-76
2023/01/27 07:28:45;;;;;;;7.25;1.65;;;4.70;99.90;;;;;;5118792;27;20183;-77
2023/01/27 07:31:11;;;;;;;7.00;1.83;;;4.70;99.90;;;;;;5128792;27;20203;-77
2023/01/27 07:33:37;;;;;;;5.68;1.83;;;4.70;99.90;;;;;;5119702;27;20172;-77
2023/01/27 07:36:03;;;;;;;7.68;1.70;;;4.70;99.90;;;;;;5126959;27;20199;-77
2023/01/27 07:38:28;;;;;;;5.68;2.03;;;4.70;99.90;;;;;;5123664;28;20242;-79
2023/01/27 07:40:54;;;;;;;6.68;1.83;;;4.70;99.90;;;;;;5122659;28;20180;-80
2023/01/27 07:43:20;;;;;;;7.57;2.25;;;4.70;99.90;;;;;;5120277;27;20179;-78
2023/01/27 07:45:47;;;;;;;5.68;2.30;;;4.70;99.90;;;;;;5114540;28;20589;-78
2023/01/27 07:48:15;;;;;;;4.78;1.70;;;4.80;99.90;;;;;;5117856;28;20192;-81
2023/01/27 07:50:41;;;;;;;12.32;2.10;;;4.80;99.90;;;;;;5122770;27;20179;-78
2023/01/27 07:53:06;;;;;;;7.20;2.10;;;4.80;99.90;;;;;;5119326;28;20243;-78
2023/01/27 07:55:33;;;;;;;4.50;1.90;;;4.80;99.90;;;;;;5131222;28;20260;-79
2023/01/27 07:57:58;;;;;;;5.82;2.05;;;4.80;99.90;;;;;;5123701;27;20230;-79
2023/01/27 08:00:25;;;;;;;5.13;1.80;;;4.80;99.90;;;;;;5130988;28;20188;-77
2023/01/27 08:02:52;;;;;;;12.80;2.25;;;4.80;99.90;;;;;;5130830;27;20176;-77
2023/01/27 08:05:24;;;;;;;8.75;1.90;;;4.80;99.90;;;;;;5120405;28;20214;-80
2023/01/27 08:07:52;;;;;;;6.88;2.30;;;4.90;99.90;;;;;;5129591;27;20655;-78
2023/01/27 08:10:18;;;;;;;8.32;2.53;;;4.90;99.90;;;;;;5130856;27;20184;-78
2023/01/27 08:12:44;;;;;;;7.05;1.80;;;4.90;99.90;;;;;;5131570;27;20268;-77
2023/01/27 08:15:10;;;;;;;9.68;2.30;;;4.90;99.90;;;;;;5127512;27;20556;-78
2023/01/27 08:17:36;;;;;;;5.40;2.15;;;4.90;99.90;;;;;;5127037;28;20292;-77
2023/01/27 08:20:03;;;;;;;7.63;1.92;;;4.90;99.90;;;;;;5128427;28;20183;-76
2023/01/27 08:22:29;;;;;;;5.55;2.50;;;4.90;99.90;;;;;;5111026;28;20573;-78
2023/01/27 08:24:55;;;;;;;9.18;2.38;;;4.90;99.90;;;;;;5123896;28;20655;-78
2023/01/27 08:27:21;;;;;;;6.40;1.85;;;4.90;99.90;;;;;;5112326;28;20173;-78
2023/01/27 08:29:47;;;;;;;9.95;2.08;;;4.90;99.90;;;;;;5115735;28;20181;-77
2023/01/27 08:32:13;;;;;;;7.53;2.15;;;5.00;99.90;;;;;;5119555;28;20181;-80
2023/01/27 08:34:39;;;;;;;7.15;2.40;;;5.00;99.90;;;;;;5113662;28;20279;-79
2023/01/27 08:37:05;;;;;;;7.97;2.45;;;5.00;99.90;;;;;;5123969;28;20184;-78
2023/01/27 08:39:32;;;;;;;8.07;2.20;;;5.10;99.90;;;;;;5123408;28;20172;-83
2023/01/27 08:41:59;;;;;;;8.88;2.35;;;5.10;99.90;;;;;;5120832;28;20217;-77
2023/01/27 08:44:27;;;;;;;8.85;2.17;;;5.20;99.90;;;;;;5122835;27;20188;-80
2023/01/27 08:46:54;;;;;;;7.90;2.65;;;5.30;99.90;;;;;;5129696;27;20648;-76
2023/01/27 08:49:20;;;;;;;5.75;2.38;;;5.20;99.90;;;;;;5134903;27;20233;-77
2023/01/27 08:51:46;;;;;;;7.32;2.30;;;5.20;99.90;;;;;;5135460;27;20588;-77
2023/01/27 08:54:12;;;;;;;9.55;2.65;;;5.20;99.90;;;;;;5127317;27;20237;-78
2023/01/27 08:56:37;;;;;;;8.10;2.08;;;5.20;99.90;;;;;;5134479;27;20180;-84
2023/01/27 08:59:03;;;;;;;6.32;2.30;;;5.20;99.90;;;;;;5131968;27;20216;-79
2023/01/27 09:01:29;;;;;;;6.68;2.22;;;5.20;99.90;;;;;;5135999;27;20181;-76
2023/01/27 09:03:55;;;;;;;4.15;2.30;;;5.10;99.90;;;;;;5125781;27;20183;-79
2023/01/27 09:06:20;;;;;;;14.07;2.47;;;5.10;99.90;;;;;;5129110;27;20176;-76
2023/01/27 09:11:31;;;;;;;11.38;2.60;;;5.10;99.90;;;;;;5135392;27;20275;-76
2023/01/27 09:13:57;;;;;;;5.03;2.20;;;5.20;99.90;;;;;;5125619;27;20264;-76
2023/01/27 09:16:22;;;;;;;5.55;2.58;;;5.30;99.90;;;;;;5117623;27;20599;-75
2023/01/27 09:18:48;;;;;;;4.28;2.45;;;5.30;99.90;;;;;;5134100;27;20675;-76
2023/01/27 09:21:14;;;;;;;7.63;2.75;;;5.40;99.90;;;;;;5148311;27;20199;-76
2023/01/27 09:23:40;;;;;;;11.30;2.60;;;5.40;99.90;;;;;;5120400;27;20164;-76
2023/01/27 09:26:05;;;;;;;8.73;2.33;;;5.50;99.90;;;;;;5134996;27;20204;-77
2023/01/27 09:28:31;;;;;;;5.35;2.40;;;5.50;99.90;;;;;;5134278;27;20180;-77
2023/01/27 09:30:58;;;;;;;4.50;2.80;;;5.50;99.90;;;;;;5122369;27;20265;-76
2023/01/27 09:33:25;;;;;;;7.18;2.80;;;5.60;99.90;;;;;;5117922;27;20213;-77
2023/01/27 09:36:04;;;;;;;6.57;2.67;;;5.80;99.90;;;;;;5117124;27;20185;-76
2023/01/27 09:38:33;;;;;;;6.93;2.47;;;6.00;99.90;;;;;;5118477;27;20192;-76
2023/01/27 09:41:13;;;;;;;5.55;2.35;;;6.20;99.90;;;;;;5130889;27;20267;-76
2023/01/27 09:43:57;;;;;;;4.15;2.30;;;6.20;99.90;;;;;;5133521;27;20627;-76
2023/01/27 09:46:33;;;;;;;9.50;4.75;;;6.30;99.90;;;;;;5137313;27;20172;-76
2023/01/27 09:49:23;;;;;;;5.63;2.83;;;6.30;99.90;;;;;;5135060;27;20236;-77
2023/01/27 09:52:23;;;;;;;9.82;2.45;;;6.30;99.90;;;;;;5125190;27;20188;-76
2023/01/27 09:55:16;;;;;;;3.38;1.92;;;6.30;99.90;;;;;;5116350;27;20193;-77
2023/01/27 09:58:03;;;;;;;6.47;1.80;;;6.20;99.90;;;;;;5125475;27;20228;-76
2023/01/27 10:01:00;;;;;;;5.20;2.00;;;6.20;99.90;;;;;;5121259;27;20263;-79
2023/01/27 10:03:48;;;;;;;4.22;2.20;;;6.00;99.90;;;;;;5132207;27;20223;-75
2023/01/27 10:06:47;;;;;;;4.07;2.42;;;5.90;99.90;;;;;;5124058;27;20181;-75
2023/01/27 10:09:37;;;;;;;3.55;2.08;;;5.90;99.90;;;;;;5130838;27;20238;-76
2023/01/27 10:12:08;;;;;;;6.07;2.10;;;5.80;99.90;;;;;;5133768;27;20211;-79
2023/01/27 10:14:55;;;;;;;3.75;2.20;;;5.70;99.90;;;;;;5125751;27;20244;-74
2023/01/27 10:18:04;;;;;;;5.47;1.85;;;5.70;99.90;;;;;;5099629;27;20188;-75
2023/01/27 10:20:42;;;;;;;5.75;2.17;;;5.60;99.90;;;;;;5097000;27;20181;-75
2023/01/27 10:23:32;;;;;;;4.72;1.98;;;5.60;99.90;;;;;;5114337;27;20175;-76
2023/01/27 10:26:07;;;;;;;2.90;1.80;;;5.60;99.90;;;;;;5113720;27;20173;-77
2023/01/27 10:28:35;;;;;;;4.22;1.90;;;5.60;99.90;;;;;;5118496;27;20257;-77
2023/01/27 10:31:10;;;;;;;4.22;1.60;;;5.50;99.90;;;;;;5131638;27;20173;-76
2023/01/27 10:34:21;;;;;;;3.25;1.70;;;5.60;99.90;;;;;;5132933;27;20599;-75
2023/01/27 10:37:03;;;;;;;2.55;1.65;;;5.60;99.90;;;;;;5127269;27;20259;-76
2023/01/27 10:39:58;;;;;;;3.22;1.70;;;5.60;99.90;;;;;;5127218;27;20319;-76
2023/01/27 10:42:42;;;;;;;3.97;2.30;;;5.60;99.90;;;;;;5128524;27;20561;-76
2023/01/27 10:45:23;;;;;;;3.22;2.40;;;5.60;99.90;;;;;;5117359;27;20185;-76
2023/01/27 10:48:03;;;;;;;5.55;2.22;;;5.50;99.90;;;;;;5126306;27;20309;-76
2023/01/27 10:50:37;;;;;;;6.68;2.63;;;5.60;99.90;;;;;;5133605;27;20180;-76
2023/01/27 10:53:15;;;;;;;3.30;2.40;;;5.50;99.90;;;;;;5132129;27;20237;-76
2023/01/27 10:56:08;;;;;;;3.92;2.35;;;5.40;99.90;;;;;;5129047;27;20164;-76
2023/01/27 10:58:43;;;;;;;3.60;2.40;;;5.40;99.90;;;;;;5109762;27;20579;-76
2023/01/27 11:01:12;;;;;;;2.67;2.33;;;5.50;99.90;;;;;;5123376;27;20180;-76
2023/01/27 11:03:53;;;;;;;3.17;2.70;;;5.50;99.90;;;;;;5118269;27;20176;-76
2023/01/27 11:06:31;;;;;;;4.35;3.15;;;5.40;99.90;;;;;;5117347;27;20234;-77
2023/01/27 11:09:28;;;;;;;6.43;3.30;;;5.40;99.90;;;;;;5113081;27;20249;-75
2023/01/27 11:11:58;;;;;;;5.95;3.35;;;5.40;99.90;;;;;;5117206;27;20593;-76
2023/01/27 11:14:37;;;;;;;4.20;3.47;;;5.40;99.90;;;;;;5116479;27;20292;-79
2023/01/27 11:17:26;;;;;;;8.15;3.95;;;5.40;99.90;;;;;;5128948;27;20218;-75
2023/01/27 11:20:18;;;;;;;4.57;3.75;;;5.40;99.90;;;;;;5132509;27;20662;-76
2023/01/27 11:22:54;;;;;;;6.28;3.78;;;5.30;99.90;;;;;;5108198;27;20287;-75
2023/01/27 11:25:28;;;;;;;4.88;3.80;;;5.30;99.90;;;;;;5114602;27;20605;-76
2023/01/27 11:28:23;;;;;;;5.20;3.67;;;5.30;99.90;;;;;;5120999;27;20184;-78
2023/01/27 11:31:15;;;;;;;5.65;4.20;;;5.30;99.90;;;;;;5114481;27;20477;-77
2023/01/27 11:33:59;;;;;;;8.07;3.92;;;5.30;99.90;;;;;;5121854;27;20174;-75
2023/01/27 11:36:25;;;;;;;7.72;4.20;;;5.30;99.90;;;;;;5130286;27;20184;-80
2023/01/27 11:38:53;;;;;;;5.38;3.67;;;5.30;99.90;;;;;;5126887;28;20197;-75
2023/01/27 11:41:19;;;;;;;6.70;4.60;;;5.30;99.90;;;;;;5130101;27;20269;-76
2023/01/27 11:43:45;;;;;;;9.85;4.90;;;5.30;99.90;;;;;;5130056;27;20183;-75
2023/01/27 11:46:17;;;;;;;7.32;4.35;;;5.30;99.90;;;;;;5132009;27;20550;-75
2023/01/27 11:48:47;;;;;;;6.88;4.63;;;5.30;99.90;;;;;;5122503;27;20179;-76
2023/01/27 11:51:19;;;;;;;6.68;4.22;;;5.30;99.90;;;;;;5132935;27;20164;-76
2023/01/27 11:53:50;;;;;;;6.88;5.03;;;5.30;99.90;;;;;;5131632;27;20272;-75
2023/01/27 11:56:18;;;;;;;9.10;4.88;;;5.30;99.90;;;;;;5133468;27;20161;-75
2023/01/27 11:58:56;;;;;;;7.85;5.32;;;5.20;99.90;;;;;;5131207;27;20217;-75
2023/01/27 12:01:32;;;;;;;8.30;4.75;;;5.30;99.90;;;;;;5133041;27;20273;-75
2023/01/27 12:04:04;;;;;;;6.25;4.32;;;5.20;99.90;;;;;;5125085;27;20267;-75
2023/01/27 12:06:43;;;;;;;5.75;4.88;;;5.20;99.90;;;;;;5095691;28;20268;-75
2023/01/27 12:09:36;;;;;;;8.52;4.30;;;5.30;99.90;;;;;;5116270;28;20277;-74
2023/01/27 12:12:15;;;;;;;8.80;4.78;;;5.30;99.90;;;;;;5100626;28;20193;-75
2023/01/27 12:14:54;;;;;;;5.43;4.60;;;5.20;99.90;;;;;;5122534;28;20173;-74
2023/01/27 12:17:23;;;;;;;8.80;5.07;;;5.20;99.90;;;;;;5121546;28;20195;-75
2023/01/27 12:19:50;;;;;;;6.78;5.03;;;5.30;99.90;;;;;;5129018;27;20177;-74
2023/01/27 12:22:38;;;;;;;5.82;4.82;;;5.20;99.90;;;;;;5134338;27;20576;-74
2023/01/27 12:25:12;;;;;;;7.55;5.28;;;5.20;99.90;;;;;;5133097;27;20185;-74
2023/01/27 12:27:50;;;;;;;6.20;4.82;;;5.20;99.90;;;;;;5116283;27;20169;-74
2023/01/27 12:30:37;;;;;;;6.22;4.90;;;5.20;99.90;;;;;;5133457;27;20173;-74
2023/01/27 12:33:13;;;;;;;5.18;4.50;;;5.10;99.90;;;;;;5135315;27;20188;-74
2023/01/27 12:35:39;;;;;;;6.93;4.88;;;5.10;99.90;;;;;;5116180;28;20256;-74
2023/01/27 12:38:25;;;;;;;5.82;4.50;;;5.10;99.90;;;;;;5130242;27;20246;-73
2023/01/27 12:41:02;;;;;;;5.78;4.50;;;5.10;99.90;;;;;;5115181;27;20501;-74
2023/01/27 12:43:28;;;;;;;7.53;4.80;;;5.10;99.90;;;;;;5119021;27;20168;-74
2023/01/27 12:46:13;;;;;;;6.78;4.60;;;5.10;99.90;;;;;;5136207;27;20184;-74
2023/01/27 12:48:48;;;;;;;5.30;3.92;;;5.10;99.90;;;;;;5133110;27;20663;-74
2023/01/27 12:51:22;;;;;;;4.75;3.75;;;5.10;99.90;;;;;;5122554;27;20181;-74
2023/01/27 12:53:50;;;;;;;4.88;3.83;;;5.10;99.90;;;;;;5114890;27;20493;-74
2023/01/27 12:56:23;;;;;;;6.13;4.07;;;5.10;99.90;;;;;;5115316;28;20245;-75
2023/01/27 12:58:54;;;;;;;5.32;4.45;;;5.10;99.90;;;;;;5121713;27;20208;-75
2023/01/27 13:01:36;;;;;;;4.40;3.97;;;5.10;99.90;;;;;;5133417;27;20601;-75
2023/01/27 13:04:08;;;;;;;5.35;3.80;;;5.10;99.90;;;;;;5122372;27;20526;-75
2023/01/27 13:06:42;;;;;;;5.72;3.92;;;5.10;99.90;;;;;;5119338;27;20197;-75
2023/01/27 13:09:50;;;;;;;5.63;4.28;;;5.00;99.90;;;;;;5134629;27;20680;-75
2023/01/27 13:12:20;;;;;;;8.65;4.50;;;5.10;99.90;;;;;;5113189;27;20201;-75
2023/01/27 13:14:51;;;;;;;5.43;4.00;;;5.10;99.90;;;;;;5130216;27;20632;-75
2023/01/27 13:17:27;;;;;;;5.95;4.68;;;5.10;99.90;;;;;;5127282;27;20176;-75
2023/01/27 13:19:56;;;;;;;5.50;4.03;;;5.10;99.90;;;;;;5134307;27;20180;-75
2023/01/27 13:22:25;;;;;;;6.60;3.70;;;5.10;99.90;;;;;;5128191;27;20256;-76
2023/01/27 13:24:57;;;;;;;4.22;3.38;;;5.10;99.90;;;;;;5133306;27;20188;-76
2023/01/27 13:27:24;;;;;;;4.28;3.60;;;5.10;99.90;;;;;;5133959;27;20165;-75
2023/01/27 13:30:39;;;;;;;4.68;3.83;;;5.10;99.90;;;;;;5134516;27;20180;-75
2023/01/27 13:33:37;;;;;;;6.43;4.00;;;5.10;99.90;;;;;;5125327;27;20189;-75
2023/01/27 13:36:38;;;;;;;4.07;3.67;;;5.20;99.90;;;;;;5129660;27;20259;-75
2023/01/27 13:39:22;;;;;;;4.30;3.83;;;5.20;99.90;;;;;;5112264;27;20216;-75
2023/01/27 13:42:01;;;;;;;4.35;3.10;;;5.20;99.90;;;;;;5116115;27;20185;-78
2023/01/27 13:44:38;;;;;;;3.80;3.13;;;5.20;99.90;;;;;;5118277;27;20181;-81